Time;durP1;ratioP1;P1;durP2;ratioP2;P2;SDS_P1;SDS_P2;PMS_P1;PMS_P2;Temp;Humidity;BMP_temperature;BMP_pressure;BME280_temperature;BME280_humidity;BME280_pressure;Samples;Min_cycle;Max_cycle;Signal;HPM_P1;HPM_P2
2023/05/30 00:00:00;;;;;;;7.13;2.03;;;;;;;;;;5034502;28;20036;-76
2023/05/30 00:02:25;;;;;;;4.72;2.15;;;;;;;;;;5034547;28;20266;-76
2023/05/30 00:04:51;;;;;;;6.60;2.10;;;;;;;;;;5052337;28;20108;-76
2023/05/30 00:07:18;;;;;;;4.70;2.13;;;;;;;;;;5034588;28;20156;-76
2023/05/30 00:09:43;;;;;;;5.60;2.08;;;;;;;;;;5034696;28;20029;-76
2023/05/30 00:12:11;;;;;;;8.63;2.25;;;;;;;;;;5052662;28;20032;-76
2023/05/30 00:14:36;;;;;;;4.75;2.22;;;;;;;;;;5052261;28;20025;-75
2023/05/30 00:17:02;;;;;;;6.38;2.40;;;;;;;;;;5052326;28;20502;-75
2023/05/30 00:19:28;;;;;;;8.15;2.28;;;;;;;;;;5052085;28;20531;-75
2023/05/30 00:21:54;;;;;;;4.90;2.13;;;;;;;;;;5052135;28;20025;-76
2023/05/30 00:24:20;;;;;;;3.85;2.10;;;;;;;;;;5052164;28;20036;-76
2023/05/30 00:26:45;;;;;;;4.20;2.25;;;;;;;;;;5052680;28;20025;-76
2023/05/30 00:29:11;;;;;;;4.82;2.10;;;;;;;;;;5052045;28;20035;-74
2023/05/30 00:31:36;;;;;;;4.47;1.95;;;;;;;;;;5056057;28;20075;-75
2023/05/30 00:34:01;;;;;;;6.60;2.60;;;;;;;;;;5055545;28;20021;-76
2023/05/30 00:36:27;;;;;;;4.87;2.37;;;;;;;;;;5056200;28;20103;-76
2023/05/30 00:38:52;;;;;;;4.70;2.10;;;;;;;;;;5055533;28;20385;-76
2023/05/30 00:41:17;;;;;;;5.13;2.27;;;;;;;;;;5055750;28;20070;-76
2023/05/30 00:43:42;;;;;;;4.20;2.20;;;;;;;;;;5054571;28;20349;-76
2023/05/30 00:46:10;;;;;;;4.43;2.13;;;;;;;;;;5054386;28;20411;-75
2023/05/30 00:48:36;;;;;;;4.88;2.28;;;;;;;;;;5054436;28;20307;-76
2023/05/30 00:51:02;;;;;;;5.35;2.40;;;;;;;;;;5037511;28;20123;-76
2023/05/30 00:53:28;;;;;;;4.55;2.42;;;;;;;;;;5053698;28;20029;-76
2023/05/30 00:55:53;;;;;;;4.50;2.13;;;;;;;;;;5055231;28;20039;-75
2023/05/30 00:58:20;;;;;;;4.85;2.70;;;;;;;;;;5054385;28;20029;-75
2023/05/30 01:00:46;;;;;;;4.63;2.10;;;;;;;;;;5055428;28;20017;-76
2023/05/30 01:03:11;;;;;;;5.47;2.20;;;;;;;;;;5055136;28;20071;-76
2023/05/30 01:05:36;;;;;;;5.35;2.53;;;;;;;;;;5055141;28;20277;-76
2023/05/30 01:08:02;;;;;;;5.25;2.20;;;;;;;;;;5055253;28;20392;-76
2023/05/30 01:10:30;;;;;;;8.93;2.40;;;;;;;;;;5054937;28;20021;-76
2023/05/30 01:13:20;;;;;;;4.65;2.40;;;;;;;;;;5054863;28;20041;-76
2023/05/30 01:15:54;;;;;;;6.20;2.25;;;;;;;;;;5055143;28;20053;-76
2023/05/30 01:18:24;;;;;;;6.00;2.40;;;;;;;;;;5055065;28;20071;-76
2023/05/30 01:20:53;;;;;;;5.47;2.40;;;;;;;;;;5055061;28;20025;-76
2023/05/30 01:23:36;;;;;;;8.88;2.50;;;;;;;;;;5054477;28;20025;-75
2023/05/30 01:26:28;;;;;;;7.10;2.43;;;;;;;;;;5054524;28;20059;-75
2023/05/30 01:28:54;;;;;;;4.90;2.33;;;;;;;;;;5036725;28;20265;-75
2023/05/30 01:31:21;;;;;;;7.15;2.35;;;;;;;;;;5054547;28;20025;-75
2023/05/30 01:33:46;;;;;;;3.90;2.22;;;;;;;;;;5054404;28;20571;-74
2023/05/30 01:36:12;;;;;;;6.28;2.50;;;;;;;;;;5036890;28;20052;-76
2023/05/30 01:38:37;;;;;;;4.60;2.73;;;;;;;;;;5054455;28;20029;-76
2023/05/30 01:41:07;;;;;;;5.18;2.70;;;;;;;;;;5054195;28;20261;-76
2023/05/30 01:43:38;;;;;;;5.47;2.30;;;;;;;;;;5054470;28;20059;-76
2023/05/30 01:46:27;;;;;;;11.80;2.70;;;;;;;;;;5054579;28;20021;-75
2023/05/30 01:49:20;;;;;;;3.88;2.10;;;;;;;;;;5054279;28;20064;-76
2023/05/30 01:52:00;;;;;;;5.73;2.30;;;;;;;;;;5054388;28;20107;-76
2023/05/30 01:54:28;;;;;;;5.00;2.13;;;;;;;;;;5054174;28;20021;-74
2023/05/30 01:57:06;;;;;;;5.40;2.55;;;;;;;;;;5054372;28;20467;-75
2023/05/30 01:59:32;;;;;;;5.20;2.40;;;;;;;;;;5054580;28;20025;-76
2023/05/30 02:02:00;;;;;;;7.68;2.33;;;;;;;;;;5053925;28;20045;-76
2023/05/30 02:04:25;;;;;;;7.30;2.30;;;;;;;;;;5035947;28;20120;-77
2023/05/30 02:06:51;;;;;;;11.63;2.78;;;;;;;;;;5054240;28;20104;-76
2023/05/30 02:09:16;;;;;;;7.03;2.83;;;;;;;;;;5053934;28;20025;-76
2023/05/30 02:11:41;;;;;;;5.63;2.60;;;;;;;;;;5053733;28;20167;-74
2023/05/30 02:14:07;;;;;;;6.77;2.50;;;;;;;;;;5053699;28;20196;-75
2023/05/30 02:16:32;;;;;;;3.35;2.20;;;;;;;;;;5053955;28;20315;-76
2023/05/30 02:18:57;;;;;;;7.13;2.58;;;;;;;;;;5053707;28;20024;-76
2023/05/30 02:21:22;;;;;;;7.45;2.45;;;;;;;;;;5035838;28;20509;-76
2023/05/30 02:23:48;;;;;;;8.50;2.47;;;;;;;;;;5035533;28;20028;-75
2023/05/30 02:26:13;;;;;;;7.97;2.43;;;;;;;;;;5053433;28;20362;-75
2023/05/30 02:28:38;;;;;;;6.13;2.53;;;;;;;;;;5053516;28;20332;-76
2023/05/30 02:31:03;;;;;;;5.95;2.50;;;;;;;;;;5053414;28;20017;-76
2023/05/30 02:33:29;;;;;;;4.93;2.40;;;;;;;;;;5053362;28;20053;-76
2023/05/30 02:35:54;;;;;;;6.95;2.78;;;;;;;;;;5053685;28;20037;-76
2023/05/30 02:38:19;;;;;;;6.75;2.55;;;;;;;;;;5053317;28;20503;-76
2023/05/30 02:40:44;;;;;;;6.45;2.47;;;;;;;;;;5053326;28;20021;-76
2023/05/30 02:43:11;;;;;;;9.37;2.70;;;;;;;;;;5053356;28;20075;-76
2023/05/30 02:45:36;;;;;;;4.97;2.38;;;;;;;;;;5053241;28;20320;-76
2023/05/30 02:48:01;;;;;;;4.90;2.65;;;;;;;;;;5053430;28;20087;-75
2023/05/30 02:50:27;;;;;;;5.07;2.42;;;;;;;;;;5053166;28;20025;-75
2023/05/30 02:52:52;;;;;;;7.60;2.65;;;;;;;;;;5052357;28;20159;-75
2023/05/30 02:55:17;;;;;;;6.77;2.60;;;;;;;;;;5053297;28;20029;-75
2023/05/30 02:57:43;;;;;;;10.02;2.67;;;;;;;;;;5053011;28;20258;-76
2023/05/30 03:00:12;;;;;;;6.10;2.70;;;;;;;;;;5053040;28;20407;-75
2023/05/30 03:02:37;;;;;;;8.13;2.22;;;;;;;;;;5053080;28;20768;-75
2023/05/30 03:05:03;;;;;;;5.10;2.47;;;;;;;;;;5052856;28;20057;-75
2023/05/30 03:07:29;;;;;;;7.47;2.58;;;;;;;;;;5053176;28;20266;-75
2023/05/30 03:09:55;;;;;;;10.18;2.30;;;;;;;;;;5053029;28;20025;-75
2023/05/30 03:12:22;;;;;;;7.97;2.20;;;;;;;;;;5052789;28;20025;-75
2023/05/30 03:14:48;;;;;;;4.10;2.40;;;;;;;;;;5035052;28;20082;-76
2023/05/30 03:17:13;;;;;;;5.05;2.42;;;;;;;;;;5052917;28;20025;-76
2023/05/30 03:19:38;;;;;;;5.78;2.83;;;;;;;;;;5053135;28;20025;-75
2023/05/30 03:22:03;;;;;;;7.80;2.50;;;;;;;;;;5034849;28;20472;-77
2023/05/30 03:24:29;;;;;;;4.95;2.70;;;;;;;;;;5052616;28;20029;-75
2023/05/30 03:26:54;;;;;;;4.57;2.58;;;;;;;;;;5035144;28;20407;-76
2023/05/30 03:29:20;;;;;;;6.30;2.60;;;;;;;;;;5053058;28;20024;-76
2023/05/30 03:31:46;;;;;;;5.55;2.35;;;;;;;;;;5052863;28;20047;-76
2023/05/30 03:34:11;;;;;;;4.72;2.70;;;;;;;;;;5052741;28;20060;-76
2023/05/30 03:36:36;;;;;;;6.77;2.73;;;;;;;;;;5053048;28;20474;-76
2023/05/30 03:39:02;;;;;;;6.20;2.67;;;;;;;;;;5052696;28;20270;-76
2023/05/30 03:41:27;;;;;;;5.22;2.67;;;;;;;;;;5052550;28;20029;-76
2023/05/30 03:43:52;;;;;;;10.83;2.90;;;;;;;;;;5052701;28;20039;-76
2023/05/30 03:46:19;;;;;;;7.45;2.70;;;;;;;;;;5052526;28;20274;-76
2023/05/30 03:48:48;;;;;;;7.15;2.85;;;;;;;;;;5053840;28;20036;-80
2023/05/30 03:51:14;;;;;;;6.45;2.40;;;;;;;;;;5052961;28;20021;-76
2023/05/30 03:53:41;;;;;;;6.38;2.67;;;;;;;;;;5053839;28;20032;-77
2023/05/30 03:56:06;;;;;;;5.20;2.40;;;;;;;;;;5054372;28;20365;-78
2023/05/30 03:58:32;;;;;;;8.57;2.55;;;;;;;;;;5055881;28;20054;-79
2023/05/30 04:01:00;;;;;;;7.03;2.63;;;;;;;;;;5036216;28;20029;-78
2023/05/30 04:03:25;;;;;;;6.10;2.58;;;;;;;;;;5053735;28;20025;-78
2023/05/30 04:05:51;;;;;;;6.20;2.72;;;;;;;;;;5057193;28;20084;-77
2023/05/30 04:08:16;;;;;;;7.60;2.72;;;;;;;;;;5059111;28;20396;-78
2023/05/30 04:10:42;;;;;;;4.50;2.25;;;;;;;;;;5040348;28;20021;-78
2023/05/30 04:13:07;;;;;;;5.65;2.60;;;;;;;;;;5038306;28;20020;-77
2023/05/30 04:15:33;;;;;;;6.43;2.60;;;;;;;;;;5056373;28;20106;-76
2023/05/30 04:18:00;;;;;;;7.43;2.60;;;;;;;;;;5056375;28;20277;-77
2023/05/30 04:20:25;;;;;;;6.03;2.60;;;;;;;;;;5039744;28;20017;-80
2023/05/30 04:33:06;;;;;;;;;;;;;;;;;;;;;
2023/05/30 04:36:04;;;;;;;7.40;2.40;;;;;;;;;;5007070;28;20041;-81
2023/05/30 04:38:34;;;;;;;7.07;2.55;;;;;;;;;;5036934;28;20492;-79
2023/05/30 04:41:01;;;;;;;7.18;2.47;;;;;;;;;;5040076;28;20029;-79
2023/05/30 04:43:27;;;;;;;8.50;2.55;;;;;;;;;;5040613;28;20025;-79
2023/05/30 04:45:52;;;;;;;9.60;2.90;;;;;;;;;;5040534;28;20083;-79
2023/05/30 04:48:18;;;;;;;7.95;2.65;;;;;;;;;;5041398;28;20500;-79
2023/05/30 04:50:47;;;;;;;9.00;2.50;;;;;;;;;;5039942;28;20060;-78
2023/05/30 04:53:15;;;;;;;7.43;2.58;;;;;;;;;;5020552;28;20401;-78
2023/05/30 04:55:41;;;;;;;8.73;2.40;;;;;;;;;;5040423;28;20028;-78
2023/05/30 04:58:06;;;;;;;7.97;2.30;;;;;;;;;;5039894;28;20174;-78
2023/05/30 05:00:32;;;;;;;5.57;2.17;;;;;;;;;;5039856;28;20036;-79
2023/05/30 05:02:57;;;;;;;8.05;2.60;;;;;;;;;;5040567;28;20265;-78
2023/05/30 05:05:22;;;;;;;8.27;2.60;;;;;;;;;;5038921;28;20026;-78
2023/05/30 05:07:48;;;;;;;6.93;2.53;;;;;;;;;;5039917;28;20358;-78
2023/05/30 05:10:13;;;;;;;11.80;2.57;;;;;;;;;;5040727;28;20302;-79
2023/05/30 05:12:38;;;;;;;5.78;2.05;;;;;;;;;;5021527;28;20259;-78
2023/05/30 05:15:04;;;;;;;9.73;3.03;;;;;;;;;;5038819;28;20018;-77
2023/05/30 05:17:30;;;;;;;5.85;2.50;;;;;;;;;;5039071;28;20262;-78
2023/05/30 05:19:55;;;;;;;6.60;2.17;;;;;;;;;;5040911;28;20051;-79
2023/05/30 05:22:21;;;;;;;6.95;2.30;;;;;;;;;;5039002;28;20760;-78
2023/05/30 05:24:46;;;;;;;8.02;2.58;;;;;;;;;;5021053;28;20080;-79
2023/05/30 05:27:11;;;;;;;10.55;2.78;;;;;;;;;;5040333;28;20029;-79
2023/05/30 05:29:36;;;;;;;7.03;2.38;;;;;;;;;;5022910;28;20400;-79
2023/05/30 05:32:02;;;;;;;6.23;2.30;;;;;;;;;;5040167;28;20477;-78
2023/05/30 05:34:27;;;;;;;6.57;2.40;;;;;;;;;;5038982;28;20258;-80
2023/05/30 05:36:52;;;;;;;8.23;1.97;;;;;;;;;;5022417;28;20017;-79
2023/05/30 05:39:17;;;;;;;6.77;2.20;;;;;;;;;;5040452;28;20374;-78
2023/05/30 05:41:43;;;;;;;5.05;2.28;;;;;;;;;;5040585;28;20312;-79
2023/05/30 05:44:08;;;;;;;10.53;2.40;;;;;;;;;;5022647;28;20029;-80
2023/05/30 05:46:33;;;;;;;9.00;2.30;;;;;;;;;;5040426;28;20381;-79
2023/05/30 05:48:58;;;;;;;7.37;2.10;;;;;;;;;;5039986;28;20309;-79
2023/05/30 05:51:23;;;;;;;5.27;1.97;;;;;;;;;;5038961;28;20262;-78
2023/05/30 05:53:49;;;;;;;4.93;1.83;;;;;;;;;;5038566;28;20263;-78
2023/05/30 05:56:14;;;;;;;10.63;2.30;;;;;;;;;;5040109;28;20271;-79
2023/05/30 05:58:39;;;;;;;7.93;2.03;;;;;;;;;;5020102;28;20269;-78
2023/05/30 06:01:04;;;;;;;11.13;2.20;;;;;;;;;;5019797;28;20713;-78
2023/05/30 06:03:30;;;;;;;5.30;1.80;;;;;;;;;;5038762;28;20738;-78
2023/05/30 06:05:56;;;;;;;10.55;2.30;;;;;;;;;;5038763;28;20839;-79
2023/05/30 06:08:21;;;;;;;7.05;2.10;;;;;;;;;;5039275;28;20029;-77
2023/05/30 06:10:47;;;;;;;8.40;2.20;;;;;;;;;;5039054;28;20166;-78
2023/05/30 06:13:12;;;;;;;7.55;2.22;;;;;;;;;;5037169;28;20021;-78
2023/05/30 06:15:37;;;;;;;7.10;2.00;;;;;;;;;;5038101;28;20021;-78
2023/05/30 06:18:03;;;;;;;6.07;1.90;;;;;;;;;;5037176;28;20258;-76
2023/05/30 06:20:29;;;;;;;4.00;1.65;;;;;;;;;;5038415;28;20583;-79
2023/05/30 06:22:54;;;;;;;6.47;1.85;;;;;;;;;;5038533;28;20035;-78
2023/05/30 06:25:19;;;;;;;6.60;1.90;;;;;;;;;;5038433;28;20032;-79
2023/05/30 06:27:44;;;;;;;5.75;1.88;;;;;;;;;;5038489;28;20018;-79
2023/05/30 06:30:10;;;;;;;5.90;1.50;;;;;;;;;;5038766;28;20029;-78
2023/05/30 06:32:35;;;;;;;5.65;1.92;;;;;;;;;;5038922;28;20258;-79
2023/05/30 06:35:00;;;;;;;6.40;1.70;;;;;;;;;;5036494;28;20029;-76
2023/05/30 06:37:25;;;;;;;2.83;1.45;;;;;;;;;;5038382;28;20262;-79
2023/05/30 06:39:51;;;;;;;3.35;1.35;;;;;;;;;;5036873;28;20029;-78
2023/05/30 06:42:16;;;;;;;6.50;1.60;;;;;;;;;;5037224;28;20079;-79
2023/05/30 06:44:41;;;;;;;8.17;1.67;;;;;;;;;;5037972;28;20340;-79
2023/05/30 06:47:06;;;;;;;8.07;1.97;;;;;;;;;;5038345;28;20258;-79
2023/05/30 06:49:32;;;;;;;5.50;1.50;;;;;;;;;;5038408;28;20262;-78
2023/05/30 06:51:57;;;;;;;6.25;1.38;;;;;;;;;;5021846;28;20060;-79
2023/05/30 06:54:22;;;;;;;6.22;2.15;;;;;;;;;;5038819;28;20026;-78
2023/05/30 06:56:48;;;;;;;4.05;1.17;;;;;;;;;;5037881;28;20059;-79
2023/05/30 06:59:14;;;;;;;1.92;1.08;;;;;;;;;;5037342;28;20056;-79
2023/05/30 07:01:39;;;;;;;5.95;1.40;;;;;;;;;;5038070;28;20033;-79
2023/05/30 07:04:05;;;;;;;2.30;1.00;;;;;;;;;;5019732;28;20030;-77
2023/05/30 07:06:30;;;;;;;6.45;1.52;;;;;;;;;;5037953;28;20290;-80
2023/05/30 07:08:55;;;;;;;6.00;1.10;;;;;;;;;;5038548;28;20022;-80
2023/05/30 07:11:22;;;;;;;4.25;1.10;;;;;;;;;;5037597;28;20029;-79
2023/05/30 07:13:47;;;;;;;7.55;1.25;;;;;;;;;;5035316;28;20029;-78
2023/05/30 07:16:12;;;;;;;4.00;1.20;;;;;;;;;;5035304;28;20022;-78
2023/05/30 07:18:37;;;;;;;3.30;1.33;;;;;;;;;;5034498;28;20269;-78
2023/05/30 07:21:03;;;;;;;3.88;1.30;;;;;;;;;;5034099;28;20274;-78
2023/05/30 07:23:28;;;;;;;3.45;0.95;;;;;;;;;;5034234;28;20507;-78
2023/05/30 07:25:53;;;;;;;7.82;1.20;;;;;;;;;;5034443;28;20465;-78
2023/05/30 07:28:20;;;;;;;5.53;0.90;;;;;;;;;;5034909;28;20021;-78
2023/05/30 07:30:46;;;;;;;3.90;1.00;;;;;;;;;;5034348;28;20277;-78
2023/05/30 07:33:11;;;;;;;2.38;0.90;;;;;;;;;;5034475;28;20480;-78
2023/05/30 07:35:36;;;;;;;3.00;1.00;;;;;;;;;;5035811;28;20025;-79
2023/05/30 07:38:01;;;;;;;2.25;0.85;;;;;;;;;;5034264;28;20026;-77
2023/05/30 07:40:27;;;;;;;5.93;1.10;;;;;;;;;;5037905;28;20155;-78
2023/05/30 07:42:52;;;;;;;1.87;0.87;;;;;;;;;;5037885;28;20282;-77
2023/05/30 07:45:19;;;;;;;1.93;1.00;;;;;;;;;;5037003;28;20311;-77
2023/05/30 07:47:44;;;;;;;5.53;1.02;;;;;;;;;;5036559;28;20262;-78
2023/05/30 07:50:10;;;;;;;4.10;1.20;;;;;;;;;;5018773;28;20104;-78
2023/05/30 07:52:35;;;;;;;2.75;1.00;;;;;;;;;;5018545;28;20298;-77
2023/05/30 07:55:00;;;;;;;2.97;0.80;;;;;;;;;;5037053;28;20079;-77
2023/05/30 07:57:25;;;;;;;2.37;1.10;;;;;;;;;;5039394;28;20079;-77
2023/05/30 07:59:51;;;;;;;3.33;1.27;;;;;;;;;;5036378;28;20267;-78
2023/05/30 08:02:16;;;;;;;5.27;1.10;;;;;;;;;;5036246;28;20255;-78
2023/05/30 08:04:41;;;;;;;3.55;1.30;;;;;;;;;;5036123;28;20283;-77
2023/05/30 08:07:07;;;;;;;4.80;1.03;;;;;;;;;;5037145;28;20021;-77
2023/05/30 08:09:33;;;;;;;1.88;1.08;;;;;;;;;;5036933;28;20266;-77
2023/05/30 08:11:58;;;;;;;2.00;1.10;;;;;;;;;;5019310;28;20399;-77
2023/05/30 08:14:24;;;;;;;2.55;1.10;;;;;;;;;;5037963;28;20025;-78
2023/05/30 08:16:49;;;;;;;6.07;1.33;;;;;;;;;;5037517;28;20081;-78
2023/05/30 08:19:14;;;;;;;5.60;1.37;;;;;;;;;;5037653;28;20025;-77
2023/05/30 08:21:40;;;;;;;3.35;0.90;;;;;;;;;;5019501;28;20262;-77
2023/05/30 08:24:07;;;;;;;4.43;1.35;;;;;;;;;;5018771;28;20067;-77
2023/05/30 08:26:32;;;;;;;5.00;1.35;;;;;;;;;;5019758;28;20079;-78
2023/05/30 08:28:58;;;;;;;4.53;1.33;;;;;;;;;;5036014;28;20037;-77
2023/05/30 08:31:23;;;;;;;5.18;1.10;;;;;;;;;;5035575;28;20392;-77
2023/05/30 08:33:48;;;;;;;3.40;1.38;;;;;;;;;;5035826;28;20017;-77
2023/05/30 08:36:14;;;;;;;5.77;1.13;;;;;;;;;;5017929;28;20057;-77
2023/05/30 08:38:39;;;;;;;3.10;1.30;;;;;;;;;;5035465;28;20258;-78
2023/05/30 08:41:05;;;;;;;4.82;1.30;;;;;;;;;;5037208;28;20116;-77
2023/05/30 08:43:30;;;;;;;3.47;1.20;;;;;;;;;;5035484;28;20037;-76
2023/05/30 08:45:55;;;;;;;7.72;1.58;;;;;;;;;;5035368;28;20393;-77
2023/05/30 08:48:23;;;;;;;7.32;1.30;;;;;;;;;;5035249;28;20075;-77
2023/05/30 08:50:49;;;;;;;5.32;1.60;;;;;;;;;;5033794;28;20040;-78
2023/05/30 08:53:22;;;;;;;2.65;1.20;;;;;;;;;;5035333;28;20029;-77
2023/05/30 08:55:55;;;;;;;8.73;1.30;;;;;;;;;;5017433;28;20060;-77
2023/05/30 08:58:34;;;;;;;2.25;1.30;;;;;;;;;;5035386;28;20543;-77
2023/05/30 09:01:01;;;;;;;3.60;1.10;;;;;;;;;;5035294;28;20030;-77
2023/05/30 09:03:29;;;;;;;3.38;1.20;;;;;;;;;;5017651;28;20601;-77
2023/05/30 09:05:55;;;;;;;2.92;1.00;;;;;;;;;;5034977;28;20029;-77
2023/05/30 09:08:23;;;;;;;3.78;1.27;;;;;;;;;;5035547;28;20030;-77
2023/05/30 09:10:51;;;;;;;3.92;1.30;;;;;;;;;;5035464;28;20033;-78
2023/05/30 09:13:16;;;;;;;3.65;1.20;;;;;;;;;;5035355;28;20033;-77
2023/05/30 09:15:41;;;;;;;4.75;1.30;;;;;;;;;;5035419;28;20026;-78
2023/05/30 09:18:06;;;;;;;7.23;1.13;;;;;;;;;;5035056;28;20029;-80
2023/05/30 09:20:32;;;;;;;4.57;1.10;;;;;;;;;;5017633;28;20270;-77
2023/05/30 09:22:58;;;;;;;3.35;1.20;;;;;;;;;;5035080;28;20250;-78
2023/05/30 09:25:24;;;;;;;6.53;1.27;;;;;;;;;;5035415;28;20025;-77
2023/05/30 09:27:50;;;;;;;2.13;0.88;;;;;;;;;;5036106;28;20522;-78
2023/05/30 09:30:16;;;;;;;7.28;1.15;;;;;;;;;;5018457;28;20109;-78
2023/05/30 09:32:43;;;;;;;3.35;1.20;;;;;;;;;;5036040;28;20547;-78
2023/05/30 09:35:10;;;;;;;2.45;1.10;;;;;;;;;;5035869;28;20102;-78
2023/05/30 09:37:41;;;;;;;4.68;1.15;;;;;;;;;;5035780;28;20409;-77
2023/05/30 09:40:11;;;;;;;3.55;1.25;;;;;;;;;;5036164;28;20080;-77
2023/05/30 09:42:39;;;;;;;2.88;1.00;;;;;;;;;;5035901;28;20029;-78
2023/05/30 09:45:12;;;;;;;7.10;1.38;;;;;;;;;;5035845;28;20547;-78
2023/05/30 09:47:44;;;;;;;3.63;1.23;;;;;;;;;;5036058;28;20029;-77
2023/05/30 09:50:12;;;;;;;5.40;0.98;;;;;;;;;;5035851;28;20499;-77
2023/05/30 09:52:37;;;;;;;4.18;1.13;;;;;;;;;;5035571;28;20059;-78
2023/05/30 09:55:06;;;;;;;3.35;1.30;;;;;;;;;;5034837;28;20021;-78
2023/05/30 09:57:35;;;;;;;3.97;1.17;;;;;;;;;;5017144;28;20140;-78
2023/05/30 10:00:09;;;;;;;8.15;1.10;;;;;;;;;;5017164;28;20554;-79
2023/05/30 10:02:38;;;;;;;2.17;1.13;;;;;;;;;;5034918;28;20108;-79
2023/05/30 10:05:04;;;;;;;2.10;1.00;;;;;;;;;;5034679;28;20025;-78
2023/05/30 10:07:31;;;;;;;4.90;1.00;;;;;;;;;;5035131;28;20026;-78
2023/05/30 10:09:57;;;;;;;3.17;1.30;;;;;;;;;;5035167;28;20512;-78
2023/05/30 10:12:23;;;;;;;2.25;1.15;;;;;;;;;;5032933;28;20090;-79
2023/05/30 10:14:49;;;;;;;3.78;1.40;;;;;;;;;;5035335;28;20094;-78
2023/05/30 10:17:16;;;;;;;2.33;0.95;;;;;;;;;;5035900;28;20496;-78
2023/05/30 10:20:02;;;;;;;2.92;1.20;;;;;;;;;;5035441;28;20021;-78
2023/05/30 10:22:30;;;;;;;2.67;1.00;;;;;;;;;;5034846;28;20400;-77
2023/05/30 10:24:57;;;;;;;6.05;1.30;;;;;;;;;;5034798;28;20036;-78
2023/05/30 10:27:31;;;;;;;5.13;1.00;;;;;;;;;;5034401;28;20037;-77
2023/05/30 10:30:07;;;;;;;3.30;1.25;;;;;;;;;;5034549;28;20025;-77
2023/05/30 10:32:36;;;;;;;3.17;0.90;;;;;;;;;;5034624;28;20100;-77
2023/05/30 10:35:13;;;;;;;4.63;1.20;;;;;;;;;;5033915;28;20025;-77
2023/05/30 10:37:38;;;;;;;5.47;1.55;;;;;;;;;;5033975;28;20025;-76
2023/05/30 10:40:12;;;;;;;4.47;1.20;;;;;;;;;;5033832;28;20032;-77
2023/05/30 10:42:46;;;;;;;3.40;1.23;;;;;;;;;;5033780;28;20061;-77
2023/05/30 10:45:20;;;;;;;8.65;1.77;;;;;;;;;;5034003;28;20499;-78
2023/05/30 10:48:04;;;;;;;;;;;;;;;;;;5016390;28;20038;-77
2023/05/30 10:50:42;;;;;;;3.63;1.27;;;;;;;;;;5033756;28;19916;-77
2023/05/30 10:53:17;;;;;;;1.73;0.88;;;;;;;;;;5034466;28;20270;-77
2023/05/30 10:55:45;;;;;;;2.95;1.38;;;;;;;;;;5033557;28;20108;-77
2023/05/30 10:58:42;;;;;;;3.10;1.15;;;;;;;;;;5015323;28;20025;-78
2023/05/30 11:01:23;;;;;;;6.78;1.50;;;;;;;;;;5033359;28;20036;-77
2023/05/30 11:04:23;;;;;;;1.38;0.88;;;;;;;;;;5033118;28;20021;-77
2023/05/30 11:06:49;;;;;;;3.50;1.20;;;;;;;;;;5024637;28;20382;-76
2023/05/30 11:09:16;;;;;;;4.63;1.20;;;;;;;;;;5032995;28;20079;-77
2023/05/30 11:12:06;;;;;;;7.53;1.30;;;;;;;;;;5035988;28;20052;-78
2023/05/30 11:14:33;;;;;;;2.00;1.20;;;;;;;;;;5032886;28;20037;-77
2023/05/30 11:17:08;;;;;;;4.10;1.30;;;;;;;;;;5033101;28;20032;-77
2023/05/30 11:19:38;;;;;;;3.25;1.40;;;;;;;;;;5033193;28;20140;-77
2023/05/30 11:22:22;;;;;;;3.53;1.00;;;;;;;;;;5034157;28;20029;-77
2023/05/30 11:25:07;;;;;;;2.60;1.05;;;;;;;;;;5035955;28;20128;-78
2023/05/30 11:27:32;;;;;;;3.30;1.05;;;;;;;;;;5032967;28;20036;-78
2023/05/30 11:29:57;;;;;;;2.30;1.10;;;;;;;;;;5032962;28;20439;-77
2023/05/30 11:32:24;;;;;;;7.10;1.23;;;;;;;;;;5033260;28;20349;-78
2023/05/30 11:34:58;;;;;;;12.35;1.30;;;;;;;;;;5034265;28;20321;-77
2023/05/30 11:37:23;;;;;;;3.08;1.25;;;;;;;;;;5034774;28;20036;-79
2023/05/30 11:39:53;;;;;;;6.13;1.40;;;;;;;;;;5033384;28;20021;-78
2023/05/30 11:42:19;;;;;;;3.95;1.15;;;;;;;;;;5034540;28;20017;-77
2023/05/30 11:44:44;;;;;;;4.65;1.20;;;;;;;;;;5033305;28;20033;-77
2023/05/30 11:47:10;;;;;;;4.82;1.08;;;;;;;;;;5016061;28;20133;-78
2023/05/30 11:49:36;;;;;;;1.23;0.93;;;;;;;;;;5034005;28;20473;-78
2023/05/30 11:52:02;;;;;;;3.72;1.10;;;;;;;;;;5035087;28;20021;-78
2023/05/30 11:54:27;;;;;;;6.50;1.15;;;;;;;;;;5017536;28;20029;-78
2023/05/30 11:56:54;;;;;;;3.88;1.25;;;;;;;;;;5033217;28;20024;-77
2023/05/30 11:59:21;;;;;;;5.10;1.35;;;;;;;;;;5034028;28;20029;-77
2023/05/30 12:01:55;;;;;;;2.97;1.20;;;;;;;;;;5034200;28;20033;-78
2023/05/30 12:04:22;;;;;;;4.68;1.27;;;;;;;;;;5016223;28;20040;-77
2023/05/30 12:06:47;;;;;;;2.88;1.40;;;;;;;;;;5032358;28;20506;-77
2023/05/30 12:09:13;;;;;;;2.60;1.25;;;;;;;;;;5032529;28;20041;-79
2023/05/30 12:11:50;;;;;;;3.05;1.35;;;;;;;;;;5034798;28;20022;-78
2023/05/30 12:14:15;;;;;;;3.17;1.13;;;;;;;;;;5035612;28;20481;-78
2023/05/30 12:16:41;;;;;;;4.57;1.50;;;;;;;;;;5036145;28;20029;-79
2023/05/30 12:19:06;;;;;;;3.73;1.33;;;;;;;;;;5035962;28;20255;-78
2023/05/30 12:21:36;;;;;;;2.95;1.00;;;;;;;;;;5035372;28;20298;-77
2023/05/30 12:24:07;;;;;;;5.20;1.55;;;;;;;;;;5032997;28;20104;-78
2023/05/30 12:26:33;;;;;;;3.90;1.30;;;;;;;;;;5038934;28;20022;-77
2023/05/30 12:29:05;;;;;;;3.38;1.45;;;;;;;;;;5038979;28;20032;-78
2023/05/30 12:31:33;;;;;;;2.72;1.30;;;;;;;;;;5038897;28;20499;-77
2023/05/30 12:34:01;;;;;;;2.08;1.05;;;;;;;;;;5039213;28;20060;-78
2023/05/30 12:36:36;;;;;;;4.43;1.30;;;;;;;;;;5037892;28;20021;-78
2023/05/30 12:39:01;;;;;;;3.42;1.30;;;;;;;;;;5037923;28;20122;-79
2023/05/30 12:41:28;;;;;;;6.97;1.40;;;;;;;;;;5021671;28;20120;-78
2023/05/30 12:43:54;;;;;;;5.32;1.42;;;;;;;;;;5020503;28;20611;-79
2023/05/30 12:46:20;;;;;;;2.03;1.00;;;;;;;;;;5020488;28;20021;-77
2023/05/30 12:48:45;;;;;;;2.90;1.20;;;;;;;;;;5036807;28;20079;-77
2023/05/30 12:51:10;;;;;;;3.33;1.30;;;;;;;;;;5036222;28;20400;-78
2023/05/30 12:53:35;;;;;;;7.20;1.80;;;;;;;;;;5036176;28;20657;-77
2023/05/30 12:56:01;;;;;;;3.57;1.50;;;;;;;;;;5037982;28;20250;-78
2023/05/30 12:58:26;;;;;;;3.50;1.20;;;;;;;;;;5036684;28;20258;-77
2023/05/30 13:00:52;;;;;;;2.88;1.23;;;;;;;;;;5035537;28;20345;-78
2023/05/30 13:03:17;;;;;;;3.42;1.33;;;;;;;;;;5035639;28;20034;-78
2023/05/30 13:05:47;;;;;;;4.45;1.60;;;;;;;;;;5036026;28;20018;-78
2023/05/30 13:08:12;;;;;;;5.85;1.50;;;;;;;;;;5034197;28;20026;-77
2023/05/30 13:10:37;;;;;;;5.40;1.40;;;;;;;;;;5035546;28;20037;-77
2023/05/30 13:13:02;;;;;;;2.83;1.23;;;;;;;;;;5035755;28;20032;-78
2023/05/30 13:15:28;;;;;;;3.33;1.30;;;;;;;;;;5036950;28;20255;-78
2023/05/30 13:17:53;;;;;;;4.23;1.20;;;;;;;;;;5035832;28;20064;-77
2023/05/30 13:20:18;;;;;;;2.00;1.10;;;;;;;;;;5036043;28;20259;-77
2023/05/30 13:22:43;;;;;;;5.87;1.83;;;;;;;;;;5036181;28;20030;-78
2023/05/30 13:25:09;;;;;;;10.10;1.30;;;;;;;;;;5036365;28;20289;-79
2023/05/30 13:27:34;;;;;;;3.25;1.13;;;;;;;;;;5036336;28;20683;-78
2023/05/30 13:29:59;;;;;;;3.83;1.30;;;;;;;;;;5034629;28;20037;-78
2023/05/30 13:32:24;;;;;;;4.13;1.20;;;;;;;;;;5036405;28;20259;-78
2023/05/30 13:34:50;;;;;;;3.97;1.40;;;;;;;;;;5036478;28;20017;-78
2023/05/30 13:37:15;;;;;;;4.20;1.38;;;;;;;;;;5036142;28;20026;-78
2023/05/30 13:39:40;;;;;;;4.00;1.38;;;;;;;;;;5039483;28;20017;-76
2023/05/30 13:42:06;;;;;;;3.63;1.20;;;;;;;;;;5039190;28;20026;-78
2023/05/30 13:44:32;;;;;;;4.45;1.27;;;;;;;;;;5038289;28;20029;-79
2023/05/30 13:46:57;;;;;;;2.08;1.00;;;;;;;;;;5037955;28;20059;-78
2023/05/30 13:49:32;;;;;;;4.80;1.20;;;;;;;;;;5038165;28;20036;-78
2023/05/30 13:51:57;;;;;;;2.63;1.27;;;;;;;;;;5038274;28;20258;-78
2023/05/30 13:54:22;;;;;;;2.33;1.10;;;;;;;;;;5037865;28;20028;-78
2023/05/30 13:56:47;;;;;;;3.83;1.30;;;;;;;;;;5020523;28;20116;-79
2023/05/30 13:59:13;;;;;;;3.37;1.37;;;;;;;;;;5037609;28;20305;-78
2023/05/30 14:01:38;;;;;;;3.53;1.40;;;;;;;;;;5035814;28;20274;-78
2023/05/30 14:04:04;;;;;;;5.70;1.33;;;;;;;;;;5017074;28;20029;-78
2023/05/30 14:06:29;;;;;;;2.42;1.30;;;;;;;;;;5016956;28;20160;-77
2023/05/30 14:08:54;;;;;;;1.90;1.10;;;;;;;;;;5035020;28;20477;-78
2023/05/30 14:11:20;;;;;;;5.07;1.23;;;;;;;;;;5034392;28;20026;-78
2023/05/30 14:13:50;;;;;;;3.03;1.13;;;;;;;;;;5034449;28;20270;-77
2023/05/30 14:16:16;;;;;;;3.03;1.40;;;;;;;;;;5034265;28;20104;-77
2023/05/30 14:18:44;;;;;;;3.85;1.50;;;;;;;;;;5016115;28;20067;-77
2023/05/30 14:21:10;;;;;;;2.83;1.30;;;;;;;;;;5033919;28;20072;-78
2023/05/30 14:23:35;;;;;;;1.95;1.20;;;;;;;;;;5038231;28;20425;-78
2023/05/30 14:26:01;;;;;;;2.63;1.10;;;;;;;;;;5038762;28;20435;-78
2023/05/30 14:28:26;;;;;;;3.00;1.20;;;;;;;;;;5037698;28;20022;-78
2023/05/30 14:30:52;;;;;;;3.85;1.30;;;;;;;;;;5016240;28;20116;-77
2023/05/30 14:33:17;;;;;;;2.63;1.38;;;;;;;;;;5033656;28;20040;-77
2023/05/30 14:35:42;;;;;;;4.40;1.20;;;;;;;;;;5016116;28;20374;-78
2023/05/30 14:38:08;;;;;;;4.47;1.40;;;;;;;;;;5034005;28;20021;-79
2023/05/30 14:40:33;;;;;;;2.30;1.10;;;;;;;;;;5033705;28;20396;-77
2023/05/30 14:42:58;;;;;;;1.20;0.90;;;;;;;;;;5033506;28;20075;-77
2023/05/30 14:45:23;;;;;;;2.23;1.23;;;;;;;;;;5033746;28;20278;-78
2023/05/30 14:47:49;;;;;;;6.28;1.40;;;;;;;;;;5033091;28;20357;-77
2023/05/30 14:50:14;;;;;;;2.20;1.20;;;;;;;;;;5033140;28;20021;-78
2023/05/30 14:52:39;;;;;;;4.23;1.27;;;;;;;;;;5033957;28;20400;-78